createdAt,value
2018-11-07T00:02:12.079Z,0.30
2018-11-07T00:04:40.466Z,0.40
2018-11-07T00:07:09.313Z,0.30
2018-11-07T00:09:37.815Z,0.20
2018-11-07T00:12:06.289Z,0.23
2018-11-07T00:14:39.742Z,0.30
2018-11-07T00:17:09.098Z,0.30
2018-11-07T00:19:37.467Z,0.40
2018-11-07T00:22:06.139Z,0.50
2018-11-07T00:24:34.531Z,0.40
2018-11-07T00:27:04.173Z,0.40
2018-11-07T00:29:32.525Z,0.50
2018-11-07T00:32:01.194Z,0.50
2018-11-07T00:34:29.629Z,0.50
2018-11-07T00:36:58.735Z,1.10
2018-11-07T00:39:27.260Z,0.60
2018-11-07T00:41:55.718Z,0.83
2018-11-07T00:44:37.015Z,0.80
2018-11-07T00:47:05.318Z,0.67
2018-11-07T00:53:08.434Z,0.83
2018-11-07T00:55:36.811Z,0.50
2018-11-07T00:58:05.554Z,0.80
2018-11-07T01:01:05.916Z,1.20
2018-11-07T01:03:34.288Z,1.13
2018-11-07T01:06:02.666Z,1.33
2018-11-07T01:08:50.586Z,1.30
2018-11-07T01:11:18.988Z,1.47
2018-11-07T01:13:53.150Z,1.50
2018-11-07T01:16:21.500Z,0.93
2018-11-07T01:18:53.430Z,0.97
2018-11-07T01:21:21.823Z,1.10
2018-11-07T01:23:54.471Z,1.37
2018-11-07T01:26:22.938Z,1.10
2018-11-07T01:28:52.510Z,1.53
2018-11-07T01:31:21.178Z,1.00
2018-11-07T01:33:57.599Z,1.20
2018-11-07T01:36:26.033Z,1.67
2018-11-07T01:39:41.899Z,2.33
2018-11-07T01:42:10.423Z,1.63
2018-11-07T01:44:39.026Z,1.43
2018-11-07T01:47:25.275Z,3.60
2018-11-07T01:49:53.777Z,3.93
2018-11-07T01:52:24.465Z,3.27
2018-11-07T01:54:52.918Z,4.00
2018-11-07T01:57:25.632Z,3.67
2018-11-07T01:59:53.992Z,4.17
2018-11-07T02:02:24.747Z,5.17
2018-11-07T02:04:53.323Z,4.80
2018-11-07T02:10:47.157Z,9.67
2018-11-07T02:13:15.590Z,8.27
2018-11-07T02:15:44.026Z,4.87
2018-11-07T02:18:52.544Z,2.30
2018-11-07T02:21:21.008Z,2.23
2018-11-07T02:23:49.644Z,0.70
2018-11-07T02:26:39.561Z,0.50
2018-11-07T02:29:12.536Z,0.50
2018-11-07T02:31:41.896Z,0.60
2018-11-07T02:34:10.547Z,0.60
2018-11-07T02:36:42.625Z,1.10
2018-11-07T02:39:12.660Z,0.40
2018-11-07T02:41:41.443Z,0.67
2018-11-07T02:44:12.186Z,0.60
2018-11-07T02:46:41.521Z,1.50
2018-11-07T02:52:52.524Z,1.10
2018-11-07T02:55:20.916Z,1.43
2018-11-07T02:57:49.239Z,0.90
2018-11-07T03:00:17.816Z,0.40
2018-11-07T03:02:59.839Z,0.60
2018-11-07T03:05:28.353Z,0.43
2018-11-07T03:08:30.652Z,0.60
2018-11-07T03:10:59.489Z,0.60
2018-11-07T03:13:27.978Z,0.70
2018-11-07T03:16:04.885Z,1.30
2018-11-07T03:18:33.372Z,1.60
2018-11-07T03:21:07.310Z,3.30
2018-11-07T03:23:35.685Z,4.87
2018-11-07T03:26:27.568Z,6.20
2018-11-07T03:28:55.941Z,4.90
2018-11-07T03:34:56.041Z,4.80
2018-11-07T03:40:45.865Z,8.87
2018-11-07T03:43:14.356Z,7.47
2018-11-07T03:46:01.382Z,6.27
2018-11-07T03:48:30.873Z,3.57
2018-11-07T03:51:03.880Z,1.37
2018-11-07T03:53:32.044Z,1.53
2018-11-07T03:56:06.138Z,1.20
2018-11-07T03:58:34.337Z,1.00
2018-11-07T04:01:06.455Z,0.60
2018-11-07T04:03:34.865Z,0.73
2018-11-07T04:06:04.356Z,0.50
2018-11-07T04:08:32.639Z,0.67
2018-11-07T04:14:36.133Z,0.57
2018-11-07T04:17:04.595Z,0.50
2018-11-07T04:19:32.942Z,0.60
2018-11-07T04:22:46.199Z,0.80
2018-11-07T04:25:14.510Z,0.60
2018-11-07T04:27:42.813Z,0.50
2018-11-07T04:30:29.506Z,1.07
2018-11-07T04:32:58.008Z,0.67
2018-11-07T04:35:38.297Z,0.70
2018-11-07T04:38:06.836Z,0.87
2018-11-07T04:44:06.438Z,0.70
2018-11-07T04:46:34.956Z,0.70
2018-11-07T04:49:03.438Z,1.30
2018-11-07T04:52:04.254Z,1.20
2018-11-07T04:54:32.769Z,0.70
2018-11-07T04:57:01.238Z,1.27
2018-11-07T04:59:43.846Z,1.47
2018-11-07T05:02:12.125Z,0.93
2018-11-07T05:04:43.470Z,0.90
2018-11-07T05:07:11.821Z,0.80
2018-11-07T05:09:40.349Z,0.60
2018-11-07T05:12:08.656Z,1.17
2018-11-07T05:14:37.112Z,3.40
2018-11-07T05:17:07.741Z,2.30
2018-11-07T05:19:35.980Z,5.83
2018-11-07T05:25:41.838Z,3.33
2018-11-07T05:28:10.491Z,2.27
2018-11-07T05:30:38.882Z,2.43
2018-11-07T05:33:26.041Z,1.00
2018-11-07T05:35:54.276Z,2.80
2018-11-07T05:38:49.436Z,1.10
2018-11-07T05:41:17.892Z,0.87
2018-11-07T05:43:46.652Z,1.40
2018-11-07T05:46:16.096Z,4.63
2018-11-07T05:48:44.571Z,2.20
2018-11-07T05:51:24.319Z,1.37
2018-11-07T05:53:52.841Z,4.27
2018-11-07T05:56:40.150Z,5.63
2018-11-07T05:59:08.752Z,6.43
2018-11-07T06:05:13.164Z,11.87
2018-11-07T06:07:41.831Z,14.97
2018-11-07T06:10:49.224Z,4.10
2018-11-07T06:13:17.515Z,5.67
2018-11-07T06:15:46.202Z,4.27
2018-11-07T06:18:38.025Z,6.37
2018-11-07T06:21:06.454Z,4.77
2018-11-07T06:23:52.190Z,4.20
2018-11-07T06:26:20.532Z,7.63
2018-11-07T06:28:48.737Z,4.43
2018-11-07T06:31:17.183Z,3.10
2018-11-07T06:33:45.187Z,2.57
2018-11-07T06:36:13.426Z,2.80
2018-11-07T06:38:41.489Z,3.00
2018-11-07T06:41:09.363Z,1.73
2018-11-07T06:43:39.125Z,4.30
2018-11-07T06:49:07.313Z,3.80
2018-11-07T06:51:35.604Z,4.30
2018-11-07T06:54:03.704Z,2.47
2018-11-07T06:56:31.583Z,2.67
2018-11-07T06:58:59.438Z,3.10
2018-11-07T07:01:27.399Z,2.73
2018-11-07T07:03:55.213Z,1.23
2018-11-07T07:06:23.037Z,2.17
2018-11-07T07:08:51.317Z,1.50
2018-11-07T07:11:19.436Z,1.53
2018-11-07T07:13:47.317Z,1.53
2018-11-07T07:16:15.321Z,1.53
2018-11-07T07:20:14.437Z,2.00
2018-11-07T07:22:43.311Z,1.57
2018-11-07T07:25:12.102Z,1.67
2018-11-07T07:27:40.986Z,1.47
2018-11-07T07:30:11.850Z,1.23
2018-11-07T07:32:40.727Z,1.07
2018-11-07T07:35:09.282Z,1.07
2018-11-07T07:37:37.172Z,1.33
2018-11-07T07:40:08.933Z,1.23
2018-11-07T07:42:37.997Z,0.80
2018-11-07T07:45:08.331Z,0.90
2018-11-07T07:47:36.386Z,1.33
2018-11-07T07:50:05.721Z,1.13
2018-11-07T07:52:33.809Z,0.97
2018-11-07T07:55:01.710Z,1.17
2018-11-07T07:57:59.499Z,1.03
2018-11-07T08:00:27.484Z,0.70
2018-11-07T08:02:55.536Z,0.80
2018-11-07T08:05:24.572Z,0.67
2018-11-07T08:07:52.435Z,0.80
2018-11-07T08:10:22.011Z,0.80
2018-11-07T08:12:58.439Z,0.50
2018-11-07T08:15:26.531Z,0.83
2018-11-07T08:17:54.739Z,0.50
2018-11-07T08:20:22.679Z,0.80
2018-11-07T08:22:50.469Z,0.53
2018-11-07T08:25:18.409Z,0.53
2018-11-07T08:27:46.327Z,0.50
2018-11-07T08:30:16.617Z,0.43
2018-11-07T08:32:44.690Z,0.43
2018-11-07T08:35:13.692Z,0.50
2018-11-07T08:37:42.660Z,0.50
2018-11-07T08:40:13.126Z,0.60
2018-11-07T08:42:41.778Z,0.63
2018-11-07T08:45:10.977Z,0.47
2018-11-07T08:47:39.046Z,0.50
2018-11-07T08:50:10.288Z,0.67
2018-11-07T08:52:38.485Z,0.40
2018-11-07T08:55:08.324Z,0.50
2018-11-07T08:57:36.372Z,0.40
2018-11-07T09:00:07.018Z,0.40
2018-11-07T09:02:34.951Z,0.70
2018-11-07T09:05:02.855Z,0.40
2018-11-07T09:07:31.121Z,0.40
2018-11-07T09:09:59.163Z,0.40
2018-11-07T09:12:27.194Z,0.70
2018-11-07T09:14:55.188Z,0.87
2018-11-07T09:17:23.186Z,0.97
2018-11-07T09:19:51.017Z,0.50
2018-11-07T09:22:18.919Z,0.57
2018-11-07T09:24:46.728Z,0.83
2018-11-07T09:27:14.840Z,0.60
2018-11-07T09:29:42.670Z,0.70
2018-11-07T09:32:10.449Z,0.70
2018-11-07T09:34:38.369Z,0.70
2018-11-07T09:37:06.201Z,1.27
2018-11-07T09:39:34.116Z,0.37
2018-11-07T09:42:01.955Z,0.50
2018-11-07T09:44:30.075Z,0.50
2018-11-07T09:46:58.149Z,0.33
2018-11-07T09:49:25.979Z,0.80
2018-11-07T09:51:54.140Z,0.40
2018-11-07T09:54:22.424Z,0.40
2018-11-07T09:56:50.469Z,0.30
2018-11-07T10:02:40.302Z,0.37
2018-11-07T10:05:09.713Z,0.30
2018-11-07T10:07:39.031Z,0.30
2018-11-07T10:10:09.431Z,0.30
2018-11-07T10:12:38.226Z,0.43
2018-11-07T10:15:06.983Z,0.47
2018-11-07T10:17:35.062Z,0.40
2018-11-07T10:20:07.257Z,0.60
2018-11-07T10:22:35.331Z,0.50
2018-11-07T10:25:03.278Z,0.50
2018-11-07T10:27:31.455Z,0.40
2018-11-07T10:29:59.672Z,0.40
2018-11-07T10:32:27.761Z,0.30
2018-11-07T10:34:55.615Z,0.40
2018-11-07T10:37:32.257Z,0.57
2018-11-07T10:39:51.422Z,0.30
2018-11-07T10:42:19.442Z,0.60
2018-11-07T10:44:47.433Z,0.50
2018-11-07T10:47:15.345Z,0.30
2018-11-07T10:49:43.443Z,0.50
2018-11-07T10:52:11.327Z,0.50
2018-11-07T10:54:39.211Z,0.90
2018-11-07T10:57:07.235Z,0.70
2018-11-07T10:59:36.522Z,0.87
2018-11-07T11:02:10.115Z,0.70
2018-11-07T11:04:37.934Z,1.10
2018-11-07T11:10:27.220Z,1.03
2018-11-07T11:12:55.348Z,1.00
2018-11-07T11:15:23.438Z,1.00
2018-11-07T11:17:51.530Z,0.83
2018-11-07T11:20:19.560Z,1.10
2018-11-07T11:22:47.585Z,1.10
2018-11-07T11:25:15.598Z,0.60
2018-11-07T11:27:43.624Z,0.93
2018-11-07T11:30:11.606Z,0.73
2018-11-07T11:32:39.775Z,0.80
2018-11-07T11:35:08.963Z,1.00
2018-11-07T11:37:36.947Z,1.00
2018-11-07T11:40:07.021Z,0.90
2018-11-07T11:42:35.034Z,0.50
2018-11-07T11:45:03.185Z,0.70
2018-11-07T11:47:31.381Z,1.00
2018-11-07T11:50:01.548Z,1.27
2018-11-07T11:52:29.562Z,1.00
2018-11-07T11:54:57.649Z,0.60
2018-11-07T11:57:25.768Z,0.60
2018-11-07T11:59:55.835Z,0.90
2018-11-07T12:02:23.560Z,0.80
2018-11-07T12:04:51.601Z,0.80
2018-11-07T12:07:19.560Z,1.00
2018-11-07T12:09:47.451Z,0.80
2018-11-07T12:12:15.482Z,0.67
2018-11-07T12:14:43.545Z,0.80
2018-11-07T12:17:11.656Z,1.13
2018-11-07T12:19:39.717Z,1.17
2018-11-07T12:22:07.669Z,0.60
2018-11-07T12:24:35.899Z,0.70
2018-11-07T12:27:04.292Z,0.90
2018-11-07T12:29:33.452Z,0.80
2018-11-07T12:32:01.773Z,0.60
2018-11-07T12:34:30.014Z,0.60
2018-11-07T12:36:58.138Z,1.03
2018-11-07T12:39:26.201Z,0.83
2018-11-07T12:41:54.294Z,0.93
2018-11-07T12:44:22.217Z,1.10
2018-11-07T12:46:50.217Z,0.60
2018-11-07T12:49:18.142Z,0.90
2018-11-07T12:51:46.203Z,0.83
2018-11-07T12:54:14.638Z,1.40
2018-11-07T12:59:08.352Z,1.07
2018-11-07T13:01:36.483Z,0.93
2018-11-07T13:04:05.051Z,0.80
2018-11-07T13:06:33.115Z,0.87
2018-11-07T13:09:01.213Z,0.60
2018-11-07T13:11:29.548Z,0.80
2018-11-07T13:13:57.573Z,0.67
2018-11-07T13:16:27.835Z,0.63
2018-11-07T13:18:55.938Z,0.70
2018-11-07T13:21:24.231Z,0.70
2018-11-07T13:23:52.275Z,0.83
2018-11-07T13:26:20.616Z,0.50
2018-11-07T13:28:48.898Z,0.50
2018-11-07T13:31:17.092Z,0.57
2018-11-07T13:33:45.209Z,0.70
2018-11-07T13:36:13.453Z,0.67
2018-11-07T13:38:42.170Z,0.50
2018-11-07T13:41:10.160Z,1.00
2018-11-07T13:43:38.256Z,1.00
2018-11-07T13:46:06.603Z,0.90
2018-11-07T13:48:34.635Z,0.90
2018-11-07T13:51:02.718Z,0.60
2018-11-07T13:53:53.376Z,1.03
2018-11-07T13:56:21.245Z,0.83
2018-11-07T13:58:49.383Z,0.73
2018-11-07T14:01:17.203Z,0.80
2018-11-07T14:03:45.010Z,0.80
2018-11-07T14:06:12.855Z,1.07
2018-11-07T14:08:40.845Z,0.80
2018-11-07T14:11:09.112Z,1.00
2018-11-07T14:13:36.980Z,0.87
2018-11-07T14:16:05.300Z,0.97
2018-11-07T14:18:33.526Z,0.83
2018-11-07T14:21:01.893Z,1.20
2018-11-07T14:23:29.912Z,1.10
2018-11-07T14:25:57.792Z,0.90
2018-11-07T14:28:25.767Z,0.90
2018-11-07T14:30:53.586Z,0.83
2018-11-07T14:33:21.768Z,0.70
2018-11-07T14:35:49.759Z,1.10
2018-11-07T14:38:17.735Z,0.90
2018-11-07T14:40:45.784Z,1.13
2018-11-07T14:43:14.046Z,0.60
2018-11-07T14:45:42.304Z,0.80
2018-11-07T14:48:10.473Z,0.80
2018-11-07T14:50:38.532Z,1.07
2018-11-07T14:53:06.900Z,0.77
2018-11-07T14:55:34.948Z,0.70
2018-11-07T14:58:04.285Z,0.77
2018-11-07T15:00:32.558Z,0.63
2018-11-07T15:03:00.948Z,0.80
2018-11-07T15:05:29.137Z,0.80
2018-11-07T15:07:57.206Z,0.90
2018-11-07T15:10:25.764Z,0.83
2018-11-07T15:12:54.041Z,0.93
2018-11-07T15:15:22.059Z,0.60
2018-11-07T15:17:50.116Z,0.70
2018-11-07T15:20:18.124Z,0.67
2018-11-07T15:22:45.957Z,0.83
2018-11-07T15:25:14.849Z,0.73
2018-11-07T15:27:44.026Z,0.70
2018-11-07T15:30:13.110Z,0.90
2018-11-07T15:32:41.495Z,0.80
2018-11-07T15:35:10.021Z,0.90
2018-11-07T15:37:38.567Z,0.90
2018-11-07T15:40:12.151Z,0.80
2018-11-07T15:42:40.946Z,1.10
2018-11-07T15:45:10.486Z,0.70
2018-11-07T15:47:38.694Z,1.00
2018-11-07T15:50:12.160Z,1.07
2018-11-07T15:52:40.104Z,0.80
2018-11-07T15:55:08.354Z,1.40
2018-11-07T15:57:36.197Z,1.10
2018-11-07T16:00:06.592Z,0.80
2018-11-07T16:02:34.629Z,0.70
2018-11-07T16:05:02.489Z,0.63
2018-11-07T16:07:30.446Z,1.07
2018-11-07T16:10:25.228Z,1.27
2018-11-07T16:13:18.695Z,1.00
2018-11-07T16:15:46.870Z,1.00
2018-11-07T16:18:15.186Z,0.77
2018-11-07T16:20:43.473Z,0.70
2018-11-07T16:23:11.577Z,0.93
2018-11-07T16:25:39.789Z,1.00
2018-11-07T16:28:07.792Z,0.77
2018-11-07T16:30:35.930Z,0.97
2018-11-07T16:33:04.026Z,0.80
2018-11-07T16:35:32.265Z,0.90
2018-11-07T16:38:00.615Z,0.97
2018-11-07T16:40:28.832Z,1.10
2018-11-07T16:42:56.960Z,1.10
2018-11-07T16:45:25.006Z,1.70
2018-11-07T16:47:53.135Z,1.43
2018-11-07T16:50:21.128Z,1.20
2018-11-07T16:52:49.173Z,1.00
2018-11-07T16:55:17.191Z,1.27
2018-11-07T16:57:45.306Z,0.90
2018-11-07T17:00:15.525Z,1.20
2018-11-07T17:02:44.087Z,1.17
2018-11-07T17:05:13.061Z,1.13
2018-11-07T17:07:41.241Z,1.13
2018-11-07T17:10:10.333Z,0.90
2018-11-07T17:12:38.504Z,1.53
2018-11-07T17:15:07.135Z,0.83
2018-11-07T17:20:42.066Z,1.30
2018-11-07T17:23:10.110Z,2.00
2018-11-07T17:25:38.200Z,1.00
2018-11-07T17:28:06.477Z,1.33
2018-11-07T17:30:35.553Z,0.90
2018-11-07T17:33:03.608Z,0.97
2018-11-07T17:35:32.662Z,1.20
2018-11-07T17:38:00.671Z,1.37
2018-11-07T17:40:29.713Z,1.00
2018-11-07T17:42:57.840Z,1.03
2018-11-07T17:45:25.838Z,1.00
2018-11-07T17:47:53.800Z,1.00
2018-11-07T17:50:22.668Z,1.17
2018-11-07T17:52:51.559Z,0.93
2018-11-07T17:55:20.225Z,0.90
2018-11-07T17:57:48.329Z,0.90
2018-11-07T18:00:18.822Z,1.53
2018-11-07T18:02:48.114Z,1.10
2018-11-07T18:05:16.210Z,1.20
2018-11-07T18:07:45.248Z,0.90
2018-11-07T18:10:15.569Z,1.47
2018-11-07T18:12:43.990Z,1.17
2018-11-07T18:15:12.162Z,1.20
2018-11-07T18:17:40.335Z,1.10
2018-11-07T18:20:09.797Z,1.27
2018-11-07T18:22:37.650Z,1.27
2018-11-07T18:25:06.844Z,1.40
2018-11-07T18:27:34.626Z,1.40
2018-11-07T18:30:50.779Z,1.37
2018-11-07T18:33:19.049Z,1.00
2018-11-07T18:35:47.411Z,1.10
2018-11-07T18:38:15.587Z,1.70
2018-11-07T18:40:43.719Z,1.33
2018-11-07T18:43:12.175Z,1.60
2018-11-07T18:45:40.485Z,1.33
2018-11-07T18:48:08.366Z,1.17
2018-11-07T18:50:36.458Z,1.23
2018-11-07T18:53:04.490Z,1.30
2018-11-07T18:55:32.510Z,1.27
2018-11-07T18:58:00.391Z,1.33
2018-11-07T19:00:28.771Z,1.10
2018-11-07T19:02:56.706Z,1.27
2018-11-07T19:05:24.646Z,1.33
2018-11-07T19:07:54.640Z,1.27
2018-11-07T19:10:22.581Z,1.70
2018-11-07T19:12:51.250Z,1.90
2018-11-07T19:15:19.677Z,1.73
2018-11-07T19:17:49.882Z,1.80
2018-11-07T19:20:18.351Z,1.27
2018-11-07T19:22:46.630Z,1.00
2018-11-07T19:25:16.767Z,1.90
2018-11-07T19:27:45.826Z,1.57
2018-11-07T19:30:19.434Z,1.40
2018-11-07T19:32:48.817Z,1.60
2018-11-07T19:35:17.713Z,1.63
2018-11-07T19:37:46.308Z,1.90
2018-11-07T19:40:28.838Z,1.90
2018-11-07T19:42:58.192Z,1.77
2018-11-07T19:46:05.521Z,2.37
2018-11-07T19:48:33.832Z,2.07
2018-11-07T19:51:01.840Z,2.20
2018-11-07T19:53:29.729Z,2.27
2018-11-07T19:55:57.775Z,1.77
2018-11-07T19:58:25.640Z,2.00
2018-11-07T20:00:53.582Z,1.53
2018-11-07T20:03:21.776Z,1.37
2018-11-07T20:05:49.634Z,1.60
2018-11-07T20:08:17.501Z,1.93
2018-11-07T20:10:45.375Z,1.70
2018-11-07T20:13:13.266Z,1.27
2018-11-07T20:15:41.228Z,1.27
2018-11-07T20:18:09.111Z,1.50
2018-11-07T20:20:37.199Z,1.73
2018-11-07T20:23:05.523Z,2.13
2018-11-07T20:25:33.315Z,1.97
2018-11-07T20:28:01.618Z,1.63
2018-11-07T20:30:29.652Z,1.47
2018-11-07T20:32:57.550Z,1.40
2018-11-07T20:35:25.444Z,2.13
2018-11-07T20:37:53.244Z,1.63
2018-11-07T20:40:22.662Z,1.70
2018-11-07T20:42:51.037Z,2.13
2018-11-07T20:45:19.337Z,1.60
2018-11-07T20:47:47.249Z,1.23
2018-11-07T20:50:19.698Z,1.17
2018-11-07T20:52:48.190Z,1.50
2018-11-07T20:55:16.648Z,1.40
2018-11-07T20:57:44.751Z,1.33
2018-11-07T21:00:16.764Z,1.40
2018-11-07T21:02:45.612Z,1.10
2018-11-07T21:05:13.788Z,1.83
2018-11-07T21:07:42.417Z,1.27
2018-11-07T21:10:12.955Z,1.40
2018-11-07T21:12:41.232Z,1.60
2018-11-07T21:15:11.883Z,1.33
2018-11-07T21:17:40.584Z,1.20
2018-11-07T21:20:08.772Z,1.40
2018-11-07T21:22:37.207Z,1.40
2018-11-07T21:25:05.456Z,1.00
2018-11-07T21:27:33.445Z,1.57
2018-11-07T21:30:01.719Z,1.37
2018-11-07T21:32:29.691Z,1.80
2018-11-07T21:34:57.785Z,1.27
2018-11-07T21:37:25.805Z,1.40
2018-11-07T21:39:53.832Z,1.43
2018-11-07T21:42:21.798Z,1.10
2018-11-07T21:44:49.801Z,1.77
2018-11-07T21:47:18.339Z,1.43
2018-11-07T21:49:46.269Z,1.30
2018-11-07T21:55:12.243Z,1.33
2018-11-07T21:57:40.509Z,1.13
2018-11-07T22:06:34.275Z,0.93
2018-11-07T22:09:02.618Z,0.93
2018-11-07T22:11:30.820Z,0.93
2018-11-07T22:13:58.739Z,1.13
2018-11-07T22:16:26.691Z,1.20
2018-11-07T22:18:54.574Z,0.90
2018-11-07T22:21:22.860Z,0.80
2018-11-07T22:23:52.249Z,0.90
2018-11-07T22:26:20.273Z,1.10
2018-11-07T22:29:02.970Z,0.90
2018-11-07T22:32:21.289Z,1.00
2018-11-07T22:34:49.206Z,1.00
2018-11-07T22:37:17.083Z,1.47
2018-11-07T22:39:44.970Z,1.10
2018-11-07T22:42:13.084Z,1.07
2018-11-07T22:44:40.934Z,0.90
2018-11-07T22:47:08.757Z,1.00
2018-11-07T22:49:36.611Z,0.80
2018-11-07T22:52:04.834Z,0.80
2018-11-07T22:54:33.028Z,1.00
2018-11-07T22:57:00.845Z,1.07
2018-11-07T22:59:28.925Z,0.90
2018-11-07T23:01:56.754Z,1.10
2018-11-07T23:04:24.578Z,1.13
2018-11-07T23:06:52.488Z,0.80
2018-11-07T23:09:20.585Z,0.80
2018-11-07T23:11:48.471Z,1.00
2018-11-07T23:14:16.302Z,0.90
2018-11-07T23:16:44.193Z,0.90
2018-11-07T23:19:12.464Z,0.80
2018-11-07T23:21:40.325Z,0.87
2018-11-07T23:24:10.341Z,0.70
2018-11-07T23:26:38.322Z,1.17
2018-11-07T23:29:06.616Z,0.70
2018-11-07T23:31:34.385Z,0.70
2018-11-07T23:34:02.523Z,1.10
2018-11-07T23:36:30.693Z,0.80
2018-11-07T23:39:03.545Z,1.07
2018-11-07T23:41:31.506Z,1.00
2018-11-07T23:44:00.057Z,0.80
2018-11-07T23:46:28.025Z,0.90
2018-11-07T23:48:56.056Z,1.57
2018-11-07T23:51:23.978Z,0.90
2018-11-07T23:53:51.946Z,1.27
2018-11-07T23:56:19.948Z,0.80
2018-11-07T23:58:48.231Z,1.50
